sensor_id;sensor_type;location;lat;lon;timestamp;P1;durP1;ratioP1;P2;durP2;ratioP2
14001;SDS011;7076;51.280;12.584;2023-01-29T00:02:38;2.10;;;1.80;;
14001;SDS011;7076;51.280;12.584;2023-01-29T00:07:41;2.90;;;2.10;;
14001;SDS011;7076;51.280;12.584;2023-01-29T00:12:44;1.70;;;1.60;;
14001;SDS011;7076;51.280;12.584;2023-01-29T00:17:48;2.37;;;1.63;;
14001;SDS011;7076;51.280;12.584;2023-01-29T00:22:51;2.03;;;1.70;;
14001;SDS011;7076;51.280;12.584;2023-01-29T00:27:54;1.97;;;1.60;;
14001;SDS011;7076;51.280;12.584;2023-01-29T00:32:58;1.83;;;1.47;;
14001;SDS011;7076;51.280;12.584;2023-01-29T00:38:01;3.43;;;2.00;;
14001;SDS011;7076;51.280;12.584;2023-01-29T00:43:04;3.00;;;1.53;;
14001;SDS011;7076;51.280;12.584;2023-01-29T00:48:25;1.80;;;1.30;;
14001;SDS011;7076;51.280;12.584;2023-01-29T00:53:28;2.87;;;1.87;;
14001;SDS011;7076;51.280;12.584;2023-01-29T00:58:31;3.10;;;1.90;;
14001;SDS011;7076;51.280;12.584;2023-01-29T01:03:36;2.83;;;2.20;;
14001;SDS011;7076;51.280;12.584;2023-01-29T01:08:46;3.13;;;2.10;;
14001;SDS011;7076;51.280;12.584;2023-01-29T01:14:06;2.27;;;1.67;;
14001;SDS011;7076;51.280;12.584;2023-01-29T01:19:11;2.43;;;1.93;;
14001;SDS011;7076;51.280;12.584;2023-01-29T01:24:14;3.20;;;2.07;;
14001;SDS011;7076;51.280;12.584;2023-01-29T01:29:17;2.77;;;2.07;;
14001;SDS011;7076;51.280;12.584;2023-01-29T01:34:21;2.93;;;1.90;;
14001;SDS011;7076;51.280;12.584;2023-01-29T01:39:24;2.43;;;2.10;;
14001;SDS011;7076;51.280;12.584;2023-01-29T01:50:10;2.77;;;2.37;;
14001;SDS011;7076;51.280;12.584;2023-01-29T01:55:16;2.90;;;2.40;;
14001;SDS011;7076;51.280;12.584;2023-01-29T02:00:21;2.73;;;2.30;;
14001;SDS011;7076;51.280;12.584;2023-01-29T02:05:29;3.43;;;2.60;;
14001;SDS011;7076;51.280;12.584;2023-01-29T02:10:51;4.80;;;2.83;;
14001;SDS011;7076;51.280;12.584;2023-01-29T02:15:54;4.63;;;3.00;;
14001;SDS011;7076;51.280;12.584;2023-01-29T02:21:03;4.93;;;3.07;;
14001;SDS011;7076;51.280;12.584;2023-01-29T02:26:14;6.70;;;3.20;;
14001;SDS011;7076;51.280;12.584;2023-01-29T02:31:27;4.13;;;3.33;;
14001;SDS011;7076;51.280;12.584;2023-01-29T02:36:35;4.80;;;3.20;;
14001;SDS011;7076;51.280;12.584;2023-01-29T02:41:41;4.40;;;3.50;;
14001;SDS011;7076;51.280;12.584;2023-01-29T02:46:49;5.83;;;3.83;;
14001;SDS011;7076;51.280;12.584;2023-01-29T02:51:57;4.10;;;3.70;;
14001;SDS011;7076;51.280;12.584;2023-01-29T02:57:03;4.57;;;3.47;;
14001;SDS011;7076;51.280;12.584;2023-01-29T03:02:12;6.00;;;3.77;;
14001;SDS011;7076;51.280;12.584;2023-01-29T03:07:20;5.23;;;4.10;;
14001;SDS011;7076;51.280;12.584;2023-01-29T03:12:39;6.23;;;4.40;;
14001;SDS011;7076;51.280;12.584;2023-01-29T03:17:46;7.40;;;4.77;;
14001;SDS011;7076;51.280;12.584;2023-01-29T03:22:52;5.77;;;4.53;;
14001;SDS011;7076;51.280;12.584;2023-01-29T03:28:01;6.23;;;4.30;;
14001;SDS011;7076;51.280;12.584;2023-01-29T03:33:26;6.97;;;4.90;;
14001;SDS011;7076;51.280;12.584;2023-01-29T03:38:33;10.03;;;4.53;;
14001;SDS011;7076;51.280;12.584;2023-01-29T03:43:40;6.90;;;4.37;;
14001;SDS011;7076;51.280;12.584;2023-01-29T03:48:50;6.97;;;4.43;;
14001;SDS011;7076;51.280;12.584;2023-01-29T03:53:57;4.97;;;3.93;;
14001;SDS011;7076;51.280;12.584;2023-01-29T03:59:07;6.57;;;4.07;;
14001;SDS011;7076;51.280;12.584;2023-01-29T04:04:50;7.37;;;4.63;;
14001;SDS011;7076;51.280;12.584;2023-01-29T04:09:55;6.43;;;4.27;;
14001;SDS011;7076;51.280;12.584;2023-01-29T04:15:00;8.80;;;4.60;;
14001;SDS011;7076;51.280;12.584;2023-01-29T04:20:06;8.20;;;4.50;;
14001;SDS011;7076;51.280;12.584;2023-01-29T04:25:11;6.57;;;4.40;;
14001;SDS011;7076;51.280;12.584;2023-01-29T04:30:20;5.97;;;4.03;;
14001;SDS011;7076;51.280;12.584;2023-01-29T04:35:28;9.30;;;4.23;;
14001;SDS011;7076;51.280;12.584;2023-01-29T04:40:37;6.10;;;4.40;;
14001;SDS011;7076;51.280;12.584;2023-01-29T04:45:49;5.60;;;4.27;;
14001;SDS011;7076;51.280;12.584;2023-01-29T04:51:02;6.47;;;4.60;;
14001;SDS011;7076;51.280;12.584;2023-01-29T04:56:10;6.93;;;4.13;;
14001;SDS011;7076;51.280;12.584;2023-01-29T05:01:19;6.80;;;4.40;;
14001;SDS011;7076;51.280;12.584;2023-01-29T05:06:27;7.57;;;4.67;;
14001;SDS011;7076;51.280;12.584;2023-01-29T05:11:31;5.73;;;4.27;;
14001;SDS011;7076;51.280;12.584;2023-01-29T05:16:36;6.57;;;4.07;;
14001;SDS011;7076;51.280;12.584;2023-01-29T05:21:44;6.60;;;4.33;;
14001;SDS011;7076;51.280;12.584;2023-01-29T05:26:48;6.70;;;4.00;;
14001;SDS011;7076;51.280;12.584;2023-01-29T05:32:10;5.27;;;4.37;;
14001;SDS011;7076;51.280;12.584;2023-01-29T05:37:14;6.63;;;4.73;;
14001;SDS011;7076;51.280;12.584;2023-01-29T05:42:17;5.60;;;4.37;;
14001;SDS011;7076;51.280;12.584;2023-01-29T05:47:20;6.27;;;4.33;;
14001;SDS011;7076;51.280;12.584;2023-01-29T05:52:24;6.00;;;3.93;;
14001;SDS011;7076;51.280;12.584;2023-01-29T05:57:26;6.67;;;4.23;;
14001;SDS011;7076;51.280;12.584;2023-01-29T06:02:29;6.27;;;4.27;;
14001;SDS011;7076;51.280;12.584;2023-01-29T06:07:34;6.60;;;4.20;;
14001;SDS011;7076;51.280;12.584;2023-01-29T06:12:37;7.30;;;4.37;;
14001;SDS011;7076;51.280;12.584;2023-01-29T06:17:39;8.63;;;4.43;;
14001;SDS011;7076;51.280;12.584;2023-01-29T06:22:44;4.87;;;3.93;;
14001;SDS011;7076;51.280;12.584;2023-01-29T06:27:49;5.67;;;4.50;;
14001;SDS011;7076;51.280;12.584;2023-01-29T06:32:54;4.80;;;4.10;;
14001;SDS011;7076;51.280;12.584;2023-01-29T06:37:58;5.03;;;3.63;;
14001;SDS011;7076;51.280;12.584;2023-01-29T06:43:01;6.07;;;4.60;;
14001;SDS011;7076;51.280;12.584;2023-01-29T06:48:04;4.47;;;4.03;;
14001;SDS011;7076;51.280;12.584;2023-01-29T06:53:08;4.93;;;4.17;;
14001;SDS011;7076;51.280;12.584;2023-01-29T06:58:11;5.47;;;3.80;;
14001;SDS011;7076;51.280;12.584;2023-01-29T07:03:15;6.40;;;4.03;;
14001;SDS011;7076;51.280;12.584;2023-01-29T07:08:19;5.27;;;4.17;;
14001;SDS011;7076;51.280;12.584;2023-01-29T07:13:23;4.93;;;4.03;;
14001;SDS011;7076;51.280;12.584;2023-01-29T07:18:25;6.17;;;4.53;;
14001;SDS011;7076;51.280;12.584;2023-01-29T07:23:30;6.13;;;4.37;;
14001;SDS011;7076;51.280;12.584;2023-01-29T07:28:34;5.97;;;4.60;;
14001;SDS011;7076;51.280;12.584;2023-01-29T07:33:37;6.47;;;4.53;;
14001;SDS011;7076;51.280;12.584;2023-01-29T07:38:41;6.83;;;5.20;;
14001;SDS011;7076;51.280;12.584;2023-01-29T07:43:44;7.17;;;5.30;;
14001;SDS011;7076;51.280;12.584;2023-01-29T07:48:47;9.23;;;5.23;;
14001;SDS011;7076;51.280;12.584;2023-01-29T07:53:51;6.13;;;4.87;;
14001;SDS011;7076;51.280;12.584;2023-01-29T07:58:54;9.67;;;5.33;;
14001;SDS011;7076;51.280;12.584;2023-01-29T08:03:57;7.60;;;4.83;;
14001;SDS011;7076;51.280;12.584;2023-01-29T08:09:02;7.27;;;5.03;;
14001;SDS011;7076;51.280;12.584;2023-01-29T08:14:04;8.87;;;5.30;;
14001;SDS011;7076;51.280;12.584;2023-01-29T08:19:09;6.97;;;5.00;;
14001;SDS011;7076;51.280;12.584;2023-01-29T08:24:13;9.37;;;5.40;;
14001;SDS011;7076;51.280;12.584;2023-01-29T08:29:16;7.27;;;5.37;;
14001;SDS011;7076;51.280;12.584;2023-01-29T08:34:19;6.27;;;4.90;;
14001;SDS011;7076;51.280;12.584;2023-01-29T08:39:23;5.57;;;4.73;;
14001;SDS011;7076;51.280;12.584;2023-01-29T08:44:25;7.13;;;5.40;;
14001;SDS011;7076;51.280;12.584;2023-01-29T08:49:28;7.90;;;5.20;;
14001;SDS011;7076;51.280;12.584;2023-01-29T08:54:32;9.20;;;5.43;;
14001;SDS011;7076;51.280;12.584;2023-01-29T08:59:35;8.10;;;5.57;;
14001;SDS011;7076;51.280;12.584;2023-01-29T09:04:38;9.53;;;5.83;;
14001;SDS011;7076;51.280;12.584;2023-01-29T09:09:42;7.20;;;4.90;;
14001;SDS011;7076;51.280;12.584;2023-01-29T09:14:45;8.37;;;5.30;;
14001;SDS011;7076;51.280;12.584;2023-01-29T09:19:48;7.67;;;5.17;;
14001;SDS011;7076;51.280;12.584;2023-01-29T09:24:53;7.87;;;5.50;;
14001;SDS011;7076;51.280;12.584;2023-01-29T09:29:56;8.17;;;5.47;;
14001;SDS011;7076;51.280;12.584;2023-01-29T09:34:59;9.90;;;5.67;;
14001;SDS011;7076;51.280;12.584;2023-01-29T09:40:03;10.47;;;6.20;;
14001;SDS011;7076;51.280;12.584;2023-01-29T09:45:09;9.07;;;6.20;;
14001;SDS011;7076;51.280;12.584;2023-01-29T09:50:16;8.43;;;5.77;;
14001;SDS011;7076;51.280;12.584;2023-01-29T09:55:23;10.83;;;7.30;;
14001;SDS011;7076;51.280;12.584;2023-01-29T10:00:28;7.60;;;6.00;;
14001;SDS011;7076;51.280;12.584;2023-01-29T10:05:37;9.37;;;5.23;;
14001;SDS011;7076;51.280;12.584;2023-01-29T10:10:48;13.20;;;6.57;;
14001;SDS011;7076;51.280;12.584;2023-01-29T10:16:02;10.03;;;6.27;;
14001;SDS011;7076;51.280;12.584;2023-01-29T10:21:13;10.00;;;6.27;;
14001;SDS011;7076;51.280;12.584;2023-01-29T10:26:27;8.23;;;5.97;;
14001;SDS011;7076;51.280;12.584;2023-01-29T10:31:31;11.37;;;5.87;;
14001;SDS011;7076;51.280;12.584;2023-01-29T10:36:37;9.63;;;6.00;;
14001;SDS011;7076;51.280;12.584;2023-01-29T10:41:51;13.73;;;7.20;;
14001;SDS011;7076;51.280;12.584;2023-01-29T10:47:04;8.37;;;6.33;;
14001;SDS011;7076;51.280;12.584;2023-01-29T10:52:18;8.37;;;6.23;;
14001;SDS011;7076;51.280;12.584;2023-01-29T10:57:35;12.50;;;6.30;;
14001;SDS011;7076;51.280;12.584;2023-01-29T11:02:48;10.57;;;6.97;;
14001;SDS011;7076;51.280;12.584;2023-01-29T11:07:55;10.17;;;6.63;;
14001;SDS011;7076;51.280;12.584;2023-01-29T11:13:04;9.43;;;6.00;;
14001;SDS011;7076;51.280;12.584;2023-01-29T11:18:08;9.97;;;6.87;;
14001;SDS011;7076;51.280;12.584;2023-01-29T11:23:24;8.93;;;6.40;;
14001;SDS011;7076;51.280;12.584;2023-01-29T11:28:36;10.10;;;6.80;;
14001;SDS011;7076;51.280;12.584;2023-01-29T11:33:40;11.27;;;6.20;;
14001;SDS011;7076;51.280;12.584;2023-01-29T11:38:43;9.03;;;6.47;;
14001;SDS011;7076;51.280;12.584;2023-01-29T11:43:47;9.40;;;6.57;;
14001;SDS011;7076;51.280;12.584;2023-01-29T11:48:50;9.57;;;5.83;;
14001;SDS011;7076;51.280;12.584;2023-01-29T11:54:03;9.93;;;6.43;;
14001;SDS011;7076;51.280;12.584;2023-01-29T11:59:13;9.73;;;6.43;;
14001;SDS011;7076;51.280;12.584;2023-01-29T12:04:23;8.83;;;6.07;;
14001;SDS011;7076;51.280;12.584;2023-01-29T12:09:27;8.70;;;5.60;;
14001;SDS011;7076;51.280;12.584;2023-01-29T12:14:32;9.00;;;6.33;;
14001;SDS011;7076;51.280;12.584;2023-01-29T12:19:37;9.77;;;5.80;;
14001;SDS011;7076;51.280;12.584;2023-01-29T12:24:44;8.50;;;5.70;;
14001;SDS011;7076;51.280;12.584;2023-01-29T12:29:54;7.70;;;5.43;;
14001;SDS011;7076;51.280;12.584;2023-01-29T12:35:00;7.60;;;5.53;;
14001;SDS011;7076;51.280;12.584;2023-01-29T12:40:10;7.53;;;5.20;;
14001;SDS011;7076;51.280;12.584;2023-01-29T12:45:16;7.80;;;5.37;;
14001;SDS011;7076;51.280;12.584;2023-01-29T12:50:20;8.67;;;5.23;;
14001;SDS011;7076;51.280;12.584;2023-01-29T12:55:26;9.03;;;6.27;;
14001;SDS011;7076;51.280;12.584;2023-01-29T13:00:33;10.23;;;5.87;;
14001;SDS011;7076;51.280;12.584;2023-01-29T13:05:39;8.73;;;5.80;;
14001;SDS011;7076;51.280;12.584;2023-01-29T13:10:44;7.93;;;5.43;;
14001;SDS011;7076;51.280;12.584;2023-01-29T13:15:51;7.27;;;5.07;;
14001;SDS011;7076;51.280;12.584;2023-01-29T13:20:54;8.50;;;5.00;;
14001;SDS011;7076;51.280;12.584;2023-01-29T13:25:57;6.43;;;5.03;;
14001;SDS011;7076;51.280;12.584;2023-01-29T13:31:12;6.13;;;4.60;;
14001;SDS011;7076;51.280;12.584;2023-01-29T13:36:23;9.47;;;5.97;;
14001;SDS011;7076;51.280;12.584;2023-01-29T13:41:31;6.37;;;5.00;;
14001;SDS011;7076;51.280;12.584;2023-01-29T13:46:39;6.07;;;5.00;;
14001;SDS011;7076;51.280;12.584;2023-01-29T13:51:43;7.07;;;5.60;;
14001;SDS011;7076;51.280;12.584;2023-01-29T13:56:55;6.97;;;5.17;;
14001;SDS011;7076;51.280;12.584;2023-01-29T14:02:01;7.30;;;5.83;;
14001;SDS011;7076;51.280;12.584;2023-01-29T14:07:36;6.97;;;5.27;;
14001;SDS011;7076;51.280;12.584;2023-01-29T14:12:42;8.43;;;5.23;;
14001;SDS011;7076;51.280;12.584;2023-01-29T14:17:52;6.33;;;4.13;;
14001;SDS011;7076;51.280;12.584;2023-01-29T14:22:56;5.80;;;4.40;;
14001;SDS011;7076;51.280;12.584;2023-01-29T14:28:02;4.53;;;4.03;;
14001;SDS011;7076;51.280;12.584;2023-01-29T14:33:14;6.20;;;3.93;;
14001;SDS011;7076;51.280;12.584;2023-01-29T14:38:26;6.17;;;4.10;;
14001;SDS011;7076;51.280;12.584;2023-01-29T14:43:31;5.97;;;4.30;;
14001;SDS011;7076;51.280;12.584;2023-01-29T14:48:36;7.47;;;4.30;;
14001;SDS011;7076;51.280;12.584;2023-01-29T14:53:44;8.47;;;4.93;;
14001;SDS011;7076;51.280;12.584;2023-01-29T14:58:53;7.27;;;4.87;;
14001;SDS011;7076;51.280;12.584;2023-01-29T15:03:59;7.43;;;4.97;;
14001;SDS011;7076;51.280;12.584;2023-01-29T15:09:08;5.23;;;4.00;;
14001;SDS011;7076;51.280;12.584;2023-01-29T15:14:20;7.67;;;4.57;;
14001;SDS011;7076;51.280;12.584;2023-01-29T15:19:26;6.87;;;4.07;;
14001;SDS011;7076;51.280;12.584;2023-01-29T15:24:31;6.13;;;4.50;;
14001;SDS011;7076;51.280;12.584;2023-01-29T15:29:35;6.10;;;4.57;;
14001;SDS011;7076;51.280;12.584;2023-01-29T15:34:40;6.93;;;4.13;;
14001;SDS011;7076;51.280;12.584;2023-01-29T15:39:44;5.43;;;4.27;;
14001;SDS011;7076;51.280;12.584;2023-01-29T15:44:48;6.97;;;4.60;;
14001;SDS011;7076;51.280;12.584;2023-01-29T15:49:50;7.13;;;5.00;;
14001;SDS011;7076;51.280;12.584;2023-01-29T15:54:54;7.67;;;4.60;;
14001;SDS011;7076;51.280;12.584;2023-01-29T15:59:59;5.57;;;4.07;;
14001;SDS011;7076;51.280;12.584;2023-01-29T16:05:12;7.70;;;4.77;;
14001;SDS011;7076;51.280;12.584;2023-01-29T16:10:18;8.07;;;4.90;;
14001;SDS011;7076;51.280;12.584;2023-01-29T16:15:32;6.63;;;4.80;;
14001;SDS011;7076;51.280;12.584;2023-01-29T16:20:38;7.17;;;4.20;;
14001;SDS011;7076;51.280;12.584;2023-01-29T16:25:44;5.80;;;4.87;;
14001;SDS011;7076;51.280;12.584;2023-01-29T16:30:53;8.00;;;5.17;;
14001;SDS011;7076;51.280;12.584;2023-01-29T16:35:56;8.00;;;5.23;;
14001;SDS011;7076;51.280;12.584;2023-01-29T16:41:12;6.57;;;4.90;;
14001;SDS011;7076;51.280;12.584;2023-01-29T16:46:19;7.23;;;4.70;;
14001;SDS011;7076;51.280;12.584;2023-01-29T16:51:27;5.57;;;4.40;;
14001;SDS011;7076;51.280;12.584;2023-01-29T16:56:30;9.20;;;5.77;;
14001;SDS011;7076;51.280;12.584;2023-01-29T17:01:35;9.27;;;5.27;;
14001;SDS011;7076;51.280;12.584;2023-01-29T17:06:39;6.63;;;4.50;;
14001;SDS011;7076;51.280;12.584;2023-01-29T17:11:42;6.40;;;4.40;;
14001;SDS011;7076;51.280;12.584;2023-01-29T17:16:49;8.73;;;4.90;;
14001;SDS011;7076;51.280;12.584;2023-01-29T17:21:52;7.77;;;5.20;;
14001;SDS011;7076;51.280;12.584;2023-01-29T17:26:55;9.57;;;5.23;;
14001;SDS011;7076;51.280;12.584;2023-01-29T17:31:59;7.20;;;4.77;;
14001;SDS011;7076;51.280;12.584;2023-01-29T17:37:02;10.40;;;4.93;;
14001;SDS011;7076;51.280;12.584;2023-01-29T17:42:07;9.37;;;5.57;;
14001;SDS011;7076;51.280;12.584;2023-01-29T17:47:14;8.23;;;4.87;;
14001;SDS011;7076;51.280;12.584;2023-01-29T17:52:17;6.50;;;4.77;;
14001;SDS011;7076;51.280;12.584;2023-01-29T17:57:20;10.73;;;6.27;;
14001;SDS011;7076;51.280;12.584;2023-01-29T18:02:24;6.93;;;5.60;;
14001;SDS011;7076;51.280;12.584;2023-01-29T18:07:30;11.10;;;6.43;;
14001;SDS011;7076;51.280;12.584;2023-01-29T18:12:33;8.10;;;5.60;;
14001;SDS011;7076;51.280;12.584;2023-01-29T18:17:37;7.77;;;5.57;;
14001;SDS011;7076;51.280;12.584;2023-01-29T18:22:41;10.33;;;5.87;;
14001;SDS011;7076;51.280;12.584;2023-01-29T18:27:44;8.33;;;5.63;;
14001;SDS011;7076;51.280;12.584;2023-01-29T18:32:48;6.43;;;5.03;;
14001;SDS011;7076;51.280;12.584;2023-01-29T18:37:51;8.33;;;5.70;;
14001;SDS011;7076;51.280;12.584;2023-01-29T18:42:54;9.17;;;5.23;;
14001;SDS011;7076;51.280;12.584;2023-01-29T18:48:01;7.90;;;5.23;;
14001;SDS011;7076;51.280;12.584;2023-01-29T18:53:04;8.50;;;5.00;;
14001;SDS011;7076;51.280;12.584;2023-01-29T18:58:06;10.77;;;6.03;;
14001;SDS011;7076;51.280;12.584;2023-01-29T19:03:31;7.70;;;4.80;;
14001;SDS011;7076;51.280;12.584;2023-01-29T19:08:33;7.53;;;5.13;;
14001;SDS011;7076;51.280;12.584;2023-01-29T19:13:36;8.33;;;4.93;;
14001;SDS011;7076;51.280;12.584;2023-01-29T19:18:42;8.70;;;6.17;;
14001;SDS011;7076;51.280;12.584;2023-01-29T19:23:44;7.33;;;4.90;;
14001;SDS011;7076;51.280;12.584;2023-01-29T19:28:47;8.27;;;5.60;;
14001;SDS011;7076;51.280;12.584;2023-01-29T19:33:52;7.20;;;5.13;;
14001;SDS011;7076;51.280;12.584;2023-01-29T19:38:55;7.87;;;5.40;;
14001;SDS011;7076;51.280;12.584;2023-01-29T19:43:58;7.47;;;5.10;;
14001;SDS011;7076;51.280;12.584;2023-01-29T19:49:02;8.30;;;5.67;;
14001;SDS011;7076;51.280;12.584;2023-01-29T19:54:07;7.27;;;4.90;;
14001;SDS011;7076;51.280;12.584;2023-01-29T19:59:10;8.37;;;5.20;;
14001;SDS011;7076;51.280;12.584;2023-01-29T20:04:14;8.97;;;5.43;;
14001;SDS011;7076;51.280;12.584;2023-01-29T20:09:17;8.93;;;5.40;;
14001;SDS011;7076;51.280;12.584;2023-01-29T20:14:20;7.30;;;4.70;;
14001;SDS011;7076;51.280;12.584;2023-01-29T20:19:25;8.00;;;5.80;;
14001;SDS011;7076;51.280;12.584;2023-01-29T20:24:28;8.17;;;5.10;;
14001;SDS011;7076;51.280;12.584;2023-01-29T20:29:32;9.00;;;5.60;;
14001;SDS011;7076;51.280;12.584;2023-01-29T20:34:36;9.07;;;4.83;;
14001;SDS011;7076;51.280;12.584;2023-01-29T20:39:39;9.63;;;5.73;;
14001;SDS011;7076;51.280;12.584;2023-01-29T20:44:42;8.57;;;5.60;;
14001;SDS011;7076;51.280;12.584;2023-01-29T20:49:46;9.50;;;5.23;;
14001;SDS011;7076;51.280;12.584;2023-01-29T20:54:49;11.23;;;6.43;;
14001;SDS011;7076;51.280;12.584;2023-01-29T20:59:52;8.83;;;4.90;;
14001;SDS011;7076;51.280;12.584;2023-01-29T21:04:56;8.57;;;5.37;;
14001;SDS011;7076;51.280;12.584;2023-01-29T21:09:59;7.73;;;5.50;;
14001;SDS011;7076;51.280;12.584;2023-01-29T21:15:02;7.90;;;4.97;;
14001;SDS011;7076;51.280;12.584;2023-01-29T21:20:07;8.57;;;5.17;;
14001;SDS011;7076;51.280;12.584;2023-01-29T21:25:10;7.40;;;5.07;;
14001;SDS011;7076;51.280;12.584;2023-01-29T21:30:14;10.37;;;5.70;;
14001;SDS011;7076;51.280;12.584;2023-01-29T21:35:20;7.00;;;5.10;;
14001;SDS011;7076;51.280;12.584;2023-01-29T21:40:22;8.47;;;5.37;;
14001;SDS011;7076;51.280;12.584;2023-01-29T21:45:26;8.40;;;5.43;;
14001;SDS011;7076;51.280;12.584;2023-01-29T21:50:30;9.20;;;5.10;;
14001;SDS011;7076;51.280;12.584;2023-01-29T21:55:33;10.70;;;5.63;;
14001;SDS011;7076;51.280;12.584;2023-01-29T22:00:36;9.43;;;5.43;;
14001;SDS011;7076;51.280;12.584;2023-01-29T22:05:40;8.43;;;5.63;;
14001;SDS011;7076;51.280;12.584;2023-01-29T22:10:43;10.13;;;5.37;;
14001;SDS011;7076;51.280;12.584;2023-01-29T22:15:46;8.57;;;5.60;;
14001;SDS011;7076;51.280;12.584;2023-01-29T22:20:52;7.67;;;5.67;;
14001;SDS011;7076;51.280;12.584;2023-01-29T22:26:00;9.23;;;5.80;;
14001;SDS011;7076;51.280;12.584;2023-01-29T22:31:03;9.83;;;5.30;;
14001;SDS011;7076;51.280;12.584;2023-01-29T22:36:08;9.07;;;5.70;;
14001;SDS011;7076;51.280;12.584;2023-01-29T22:41:11;7.13;;;4.63;;
14001;SDS011;7076;51.280;12.584;2023-01-29T22:46:14;7.73;;;4.93;;
14001;SDS011;7076;51.280;12.584;2023-01-29T22:51:19;7.73;;;5.10;;
14001;SDS011;7076;51.280;12.584;2023-01-29T22:56:22;9.43;;;5.57;;
14001;SDS011;7076;51.280;12.584;2023-01-29T23:01:26;8.33;;;5.63;;
14001;SDS011;7076;51.280;12.584;2023-01-29T23:06:32;8.63;;;5.70;;
14001;SDS011;7076;51.280;12.584;2023-01-29T23:11:34;9.17;;;5.53;;
14001;SDS011;7076;51.280;12.584;2023-01-29T23:16:37;8.60;;;5.57;;
14001;SDS011;7076;51.280;12.584;2023-01-29T23:21:41;7.50;;;5.13;;
14001;SDS011;7076;51.280;12.584;2023-01-29T23:26:44;9.10;;;5.73;;
14001;SDS011;7076;51.280;12.584;2023-01-29T23:32:05;8.07;;;5.27;;
14001;SDS011;7076;51.280;12.584;2023-01-29T23:37:09;8.13;;;5.57;;
14001;SDS011;7076;51.280;12.584;2023-01-29T23:42:12;8.80;;;6.37;;
14001;SDS011;7076;51.280;12.584;2023-01-29T23:47:15;9.93;;;5.63;;
14001;SDS011;7076;51.280;12.584;2023-01-29T23:52:19;9.03;;;5.57;;
14001;SDS011;7076;51.280;12.584;2023-01-29T23:57:22;8.60;;;5.50;;
